Time;durP1;ratioP1;P1;durP2;ratioP2;P2;SDS_P1;SDS_P2;PMS_P1;PMS_P2;Temp;Humidity;BMP_temperature;BMP_pressure;BME280_temperature;BME280_humidity;BME280_pressure;Samples;Min_cycle;Max_cycle;Signal;HPM_P1;HPM_P2
2023/12/13 00:01:00;;;;;;;8.10;7.80;;;9.70;99.90;;;;;;10454739;28;20224;-76
2023/12/13 00:06:03;;;;;;;7.20;6.70;;;9.70;99.90;;;;;;10453931;28;20239;-77
2023/12/13 00:11:07;;;;;;;7.87;7.37;;;9.80;99.90;;;;;;10454297;28;20224;-76
2023/12/13 00:16:10;;;;;;;7.17;6.87;;;9.80;99.90;;;;;;10453930;28;20251;-77
2023/12/13 00:21:15;;;;;;;7.77;7.37;;;9.80;99.90;;;;;;10454068;28;20213;-75
2023/12/13 00:26:19;;;;;;;7.17;6.77;;;9.70;99.90;;;;;;10416471;28;20213;-77
2023/12/13 00:31:22;;;;;;;6.50;6.20;;;9.80;99.90;;;;;;10452612;28;20233;-76
2023/12/13 00:36:24;;;;;;;7.23;6.77;;;9.80;99.90;;;;;;10452151;28;20193;-76
2023/12/13 00:41:28;;;;;;;7.13;6.77;;;9.70;99.90;;;;;;10452047;28;20217;-76
2023/12/13 00:46:30;;;;;;;6.30;6.00;;;9.70;99.90;;;;;;10452445;28;20227;-76
2023/12/13 00:51:32;;;;;;;6.30;6.07;;;9.70;99.90;;;;;;10452295;28;20225;-76
2023/12/13 00:56:36;;;;;;;6.40;6.10;;;9.60;99.90;;;;;;10410840;28;20698;-76
2023/12/13 01:01:46;;;;;;;5.43;5.23;;;9.50;99.90;;;;;;10412060;28;20213;-76
2023/12/13 01:06:48;;;;;;;6.10;5.70;;;9.40;99.90;;;;;;10452038;28;20200;-77
2023/12/13 01:11:52;;;;;;;5.00;4.80;;;9.40;99.90;;;;;;10451884;28;20291;-76
2023/12/13 01:16:54;;;;;;;5.30;5.10;;;9.40;99.90;;;;;;10451487;28;20194;-76
2023/12/13 01:21:57;;;;;;;5.30;5.00;;;9.30;99.90;;;;;;10448475;28;20222;-76
2023/12/13 01:27:00;;;;;;;4.10;3.90;;;9.30;99.90;;;;;;10450908;28;20185;-76
2023/12/13 01:32:03;;;;;;;4.13;4.03;;;9.30;99.90;;;;;;10451197;28;20235;-76
2023/12/13 01:37:06;;;;;;;4.53;4.13;;;9.20;99.90;;;;;;10449605;28;20198;-77
2023/12/13 01:42:09;;;;;;;4.43;4.10;;;9.20;99.90;;;;;;10409631;28;20225;-76
2023/12/13 01:47:13;;;;;;;4.10;4.00;;;9.20;99.90;;;;;;10449846;28;20210;-76
2023/12/13 01:52:15;;;;;;;3.90;3.70;;;9.20;99.90;;;;;;10444116;28;20221;-76
2023/12/13 01:57:20;;;;;;;5.07;4.23;;;9.20;99.90;;;;;;10448889;28;20201;-76
2023/12/13 02:02:23;;;;;;;4.07;3.77;;;9.30;99.90;;;;;;10445117;28;20233;-76
2023/12/13 02:07:26;;;;;;;4.67;4.23;;;9.30;99.90;;;;;;10448418;28;20204;-76
2023/12/13 02:12:29;;;;;;;3.43;3.13;;;9.30;99.90;;;;;;10448465;28;20229;-76
2023/12/13 02:17:31;;;;;;;3.57;3.37;;;9.30;99.90;;;;;;10449433;28;20212;-76
2023/12/13 02:22:35;;;;;;;5.17;3.33;;;9.30;99.90;;;;;;10440532;28;20272;-76
2023/12/13 02:27:38;;;;;;;3.30;3.10;;;9.20;99.90;;;;;;10446704;28;20193;-75
2023/12/13 02:32:40;;;;;;;3.50;3.30;;;9.20;99.90;;;;;;10448795;28;20217;-76
2023/12/13 02:37:48;;;;;;;3.40;3.20;;;9.20;99.90;;;;;;10447588;28;20193;-76
2023/12/13 02:42:51;;;;;;;3.17;2.97;;;9.30;99.90;;;;;;10448962;28;20623;-76
2023/12/13 02:47:56;;;;;;;3.23;3.03;;;9.30;99.90;;;;;;10448286;28;20255;-76
2023/12/13 02:52:59;;;;;;;3.10;2.90;;;9.30;99.90;;;;;;10436511;28;20222;-76
2023/12/13 02:58:02;;;;;;;3.17;2.97;;;9.40;99.90;;;;;;10439846;28;20230;-75
2023/12/13 03:03:05;;;;;;;5.13;3.53;;;9.40;99.90;;;;;;10454101;28;20732;-76
2023/12/13 03:08:08;;;;;;;3.50;3.20;;;9.40;99.90;;;;;;10455017;28;20213;-76
2023/12/13 03:13:11;;;;;;;3.40;3.20;;;9.40;99.90;;;;;;10456767;28;20271;-76
2023/12/13 03:18:13;;;;;;;3.33;3.23;;;9.50;99.90;;;;;;10456028;28;20225;-77
2023/12/13 03:23:17;;;;;;;3.70;3.40;;;9.50;99.90;;;;;;10441673;28;20206;-76
2023/12/13 03:28:19;;;;;;;3.40;3.30;;;9.60;99.90;;;;;;10450921;28;20275;-76
2023/12/13 03:33:21;;;;;;;3.60;3.30;;;9.60;99.90;;;;;;10456167;28;20204;-77
2023/12/13 03:38:25;;;;;;;3.53;3.33;;;9.70;99.90;;;;;;10454017;28;20278;-76
2023/12/13 03:43:27;;;;;;;3.60;3.30;;;9.70;99.90;;;;;;10455589;28;20201;-76
2023/12/13 03:48:30;;;;;;;4.17;3.97;;;9.80;99.90;;;;;;10454494;28;20225;-76
2023/12/13 03:53:34;;;;;;;3.50;3.30;;;9.80;99.90;;;;;;10437126;28;20313;-76
2023/12/13 03:58:36;;;;;;;4.67;4.27;;;9.80;99.90;;;;;;10447679;28;20229;-76
2023/12/13 04:03:38;;;;;;;3.87;3.57;;;9.70;99.90;;;;;;10455084;28;20208;-76
2023/12/13 04:08:42;;;;;;;3.87;3.20;;;9.70;99.90;;;;;;10452514;28;20213;-76
2023/12/13 04:13:44;;;;;;;3.10;2.90;;;9.60;99.90;;;;;;10454691;28;20213;-76
2023/12/13 04:18:47;;;;;;;3.20;3.00;;;9.50;99.90;;;;;;10453809;28;20229;-76
2023/12/13 04:23:50;;;;;;;3.80;3.53;;;9.40;99.90;;;;;;10434325;28;20208;-76
2023/12/13 04:28:53;;;;;;;3.37;3.20;;;9.30;99.90;;;;;;10445256;28;20213;-76
2023/12/13 04:33:55;;;;;;;3.60;3.33;;;9.10;99.90;;;;;;10453711;28;20205;-76
2023/12/13 04:38:59;;;;;;;3.67;3.47;;;9.10;99.90;;;;;;10451935;28;20212;-76
2023/12/13 04:44:01;;;;;;;3.40;3.20;;;9.00;99.90;;;;;;10455367;28;20686;-74
2023/12/13 04:49:03;;;;;;;4.10;3.80;;;9.00;99.90;;;;;;10455023;28;20213;-75
2023/12/13 04:54:07;;;;;;;4.07;3.80;;;9.00;99.90;;;;;;10444914;28;20197;-77
2023/12/13 04:59:09;;;;;;;4.17;3.70;;;9.00;99.90;;;;;;10451828;28;20229;-76
2023/12/13 05:04:12;;;;;;;3.43;2.90;;;9.00;99.90;;;;;;10451964;28;20228;-76
2023/12/13 05:09:16;;;;;;;6.50;3.70;;;9.00;99.90;;;;;;10451697;28;20916;-76
2023/12/13 05:14:18;;;;;;;3.47;3.17;;;9.10;99.90;;;;;;10451729;28;20189;-76
2023/12/13 05:19:20;;;;;;;3.70;3.50;;;9.20;99.90;;;;;;10445753;28;20702;-76
2023/12/13 05:24:24;;;;;;;4.30;3.93;;;9.20;99.90;;;;;;10426223;28;20204;-77
2023/12/13 05:29:26;;;;;;;4.30;3.80;;;9.30;99.90;;;;;;10451379;28;20702;-76
2023/12/13 05:34:29;;;;;;;3.63;3.43;;;9.30;99.90;;;;;;10450555;28;20671;-77
2023/12/13 05:39:32;;;;;;;3.80;3.60;;;9.30;99.90;;;;;;10447453;28;20428;-76
2023/12/13 05:44:35;;;;;;;3.73;3.53;;;9.60;99.90;;;;;;10448763;28;20793;-77
2023/12/13 05:49:37;;;;;;;3.00;2.90;;;9.60;99.90;;;;;;10450274;28;20221;-76
2023/12/13 05:54:41;;;;;;;4.80;4.33;;;9.60;99.90;;;;;;10421646;28;20233;-77
2023/12/13 05:59:43;;;;;;;3.30;3.20;;;9.60;99.90;;;;;;10446621;28;20221;-77
2023/12/13 06:04:46;;;;;;;3.10;2.90;;;9.60;99.90;;;;;;10449216;28;20194;-77
2023/12/13 06:09:49;;;;;;;3.90;3.60;;;9.60;99.90;;;;;;10449139;28;20217;-76
2023/12/13 06:14:52;;;;;;;2.83;2.70;;;9.50;99.90;;;;;;10446057;28;20201;-77
2023/12/13 06:19:54;;;;;;;2.53;2.43;;;9.50;99.90;;;;;;10429489;28;20267;-77
2023/12/13 06:24:58;;;;;;;3.37;3.20;;;9.60;99.90;;;;;;10427438;28;20674;-77
2023/12/13 06:30:00;;;;;;;2.80;2.60;;;9.60;99.90;;;;;;10436945;28;20282;-78
2023/12/13 06:35:02;;;;;;;2.63;2.53;;;9.70;99.90;;;;;;10432756;28;20643;-78
2023/12/13 06:40:08;;;;;;;2.57;2.20;;;9.70;99.90;;;;;;10439170;28;20642;-77
2023/12/13 06:45:10;;;;;;;2.70;2.50;;;9.80;99.90;;;;;;10433754;28;20212;-77
2023/12/13 06:50:12;;;;;;;2.73;2.63;;;9.80;99.90;;;;;;10443225;28;20213;-76
2023/12/13 06:55:16;;;;;;;2.30;2.10;;;9.80;99.90;;;;;;10437785;28;20192;-77
2023/12/13 07:00:21;;;;;;;2.13;1.67;;;9.80;99.90;;;;;;10457336;28;20213;-77
2023/12/13 07:05:23;;;;;;;2.83;2.60;;;9.70;99.90;;;;;;10456929;28;20193;-77
2023/12/13 07:10:28;;;;;;;2.37;2.20;;;9.60;99.90;;;;;;10453062;28;20213;-78
2023/12/13 07:15:30;;;;;;;3.73;2.80;;;9.60;99.90;;;;;;10453208;28;20193;-77
2023/12/13 07:20:34;;;;;;;2.33;2.10;;;9.60;99.90;;;;;;10444114;28;20292;-77
2023/12/13 07:25:38;;;;;;;3.83;2.50;;;9.60;99.90;;;;;;10451945;28;20201;-76
2023/12/13 07:30:41;;;;;;;5.53;3.17;;;9.70;99.90;;;;;;10447249;28;20225;-77
2023/12/13 07:35:47;;;;;;;2.67;2.13;;;9.70;99.90;;;;;;10439035;28;20260;-77
2023/12/13 07:40:50;;;;;;;2.10;2.00;;;9.80;99.90;;;;;;10430623;28;20252;-77
2023/12/13 07:45:54;;;;;;;1.90;1.30;;;9.80;99.90;;;;;;10446529;28;20672;-77
2023/12/13 07:50:57;;;;;;;2.50;2.37;;;9.80;99.90;;;;;;10455444;28;20232;-77
2023/12/13 07:56:00;;;;;;;2.33;2.13;;;9.80;99.90;;;;;;10454581;28;20231;-77
2023/12/13 08:01:03;;;;;;;2.10;2.00;;;9.90;99.90;;;;;;10459051;23;20722;-76
2023/12/13 08:06:11;;;;;;;1.53;1.43;;;10.00;99.90;;;;;;10396781;28;20210;-77
2023/12/13 08:11:16;;;;;;;1.93;1.70;;;10.00;99.90;;;;;;10396006;28;20233;-77
2023/12/13 08:16:19;;;;;;;2.03;1.93;;;10.00;99.90;;;;;;10397020;28;20241;-76
2023/12/13 08:21:23;;;;;;;2.50;2.30;;;9.90;99.90;;;;;;10393796;28;20211;-76
2023/12/13 08:26:27;;;;;;;2.33;2.23;;;9.90;99.90;;;;;;10390906;28;20207;-76
2023/12/13 08:31:29;;;;;;;1.97;1.87;;;9.90;99.90;;;;;;10391728;28;20720;-76
2023/12/13 08:36:32;;;;;;;3.33;2.50;;;9.80;99.90;;;;;;10405913;28;20198;-75
2023/12/13 08:41:35;;;;;;;2.80;2.60;;;9.80;99.90;;;;;;10406122;28;20719;-76
2023/12/13 08:46:38;;;;;;;3.00;2.80;;;9.80;99.90;;;;;;10380967;28;20631;-76
2023/12/13 08:51:40;;;;;;;2.40;2.30;;;9.80;99.90;;;;;;10406216;28;20279;-76
2023/12/13 08:56:44;;;;;;;7.30;2.80;;;9.80;99.90;;;;;;10398962;28;20202;-76
2023/12/13 09:01:46;;;;;;;2.50;2.40;;;9.80;99.90;;;;;;10383807;28;20234;-75
2023/12/13 09:06:49;;;;;;;2.40;2.20;;;9.90;99.90;;;;;;10398141;28;20201;-75
2023/12/13 09:11:52;;;;;;;2.33;2.23;;;9.90;99.90;;;;;;10399974;28;20284;-75
2023/12/13 09:16:55;;;;;;;2.60;2.40;;;9.90;99.90;;;;;;10401755;28;20619;-76
2023/12/13 09:21:57;;;;;;;2.30;2.17;;;10.00;99.90;;;;;;10406256;28;20218;-75
2023/12/13 09:27:01;;;;;;;2.80;2.57;;;10.30;99.90;;;;;;10407278;28;20209;-76
2023/12/13 09:32:04;;;;;;;2.50;2.30;;;10.40;99.90;;;;;;10415019;28;20238;-75
2023/12/13 09:37:07;;;;;;;4.93;2.47;;;10.50;99.90;;;;;;10397491;28;20244;-75
2023/12/13 09:42:10;;;;;;;3.30;3.00;;;10.60;99.90;;;;;;10405283;28;20260;-75
2023/12/13 09:47:16;;;;;;;3.03;2.50;;;10.60;99.90;;;;;;10405852;28;20900;-75
2023/12/13 09:52:21;;;;;;;1.90;1.80;;;10.80;99.90;;;;;;10396601;28;20252;-75
2023/12/13 09:57:25;;;;;;;2.50;2.30;;;10.80;99.90;;;;;;10402862;28;20228;-75
2023/12/13 10:02:27;;;;;;;2.50;2.30;;;10.90;99.90;;;;;;10403102;28;20221;-75
2023/12/13 10:07:30;;;;;;;2.63;2.23;;;10.90;99.90;;;;;;10402313;28;20267;-75
2023/12/13 10:12:33;;;;;;;2.23;2.13;;;10.90;99.90;;;;;;10401695;28;20252;-75
2023/12/13 10:17:36;;;;;;;3.33;2.10;;;10.90;99.90;;;;;;10400750;28;20557;-75
2023/12/13 10:22:38;;;;;;;3.00;2.77;;;10.90;99.90;;;;;;10399633;28;20221;-75
2023/12/13 10:27:43;;;;;;;3.70;2.77;;;11.00;99.90;;;;;;10404885;28;20213;-75
2023/12/13 10:32:45;;;;;;;3.13;2.93;;;11.00;99.90;;;;;;10392036;28;20363;-75
2023/12/13 10:37:49;;;;;;;2.90;2.40;;;11.00;99.90;;;;;;10387979;28;20205;-75
2023/12/13 10:42:54;;;;;;;3.20;2.90;;;11.10;99.90;;;;;;10397401;28;20653;-75
2023/12/13 10:48:01;;;;;;;3.73;3.17;;;11.10;99.90;;;;;;10390690;28;20210;-75
2023/12/13 10:53:04;;;;;;;2.07;1.97;;;11.10;99.90;;;;;;10392446;28;20288;-75
2023/12/13 10:58:08;;;;;;;9.23;3.00;;;11.10;99.90;;;;;;10398675;28;20641;-75
2023/12/13 11:03:14;;;;;;;3.70;2.60;;;11.10;99.90;;;;;;10405486;28;20707;-77
2023/12/13 11:08:19;;;;;;;2.83;2.23;;;11.00;99.90;;;;;;10398180;28;20205;-76
2023/12/13 11:13:24;;;;;;;2.50;2.40;;;10.90;99.90;;;;;;10402834;28;20264;-77
2023/12/13 11:18:26;;;;;;;4.17;2.13;;;10.90;99.90;;;;;;10399083;28;20240;-76
2023/12/13 11:23:29;;;;;;;3.43;2.23;;;11.00;99.90;;;;;;10408872;28;20221;-76
2023/12/13 11:28:34;;;;;;;1.90;1.80;;;11.00;99.90;;;;;;10405551;28;20202;-77
2023/12/13 11:33:37;;;;;;;3.40;2.70;;;11.10;99.90;;;;;;10392712;28;20280;-76
2023/12/13 11:38:40;;;;;;;3.00;2.80;;;11.10;99.90;;;;;;10403473;28;20237;-77
2023/12/13 11:43:46;;;;;;;2.17;2.03;;;11.00;99.90;;;;;;10380856;28;20654;-78
2023/12/13 11:48:48;;;;;;;2.07;1.97;;;11.00;99.90;;;;;;10395373;28;20710;-78
2023/12/13 11:53:50;;;;;;;2.50;2.40;;;11.00;99.90;;;;;;10399694;28;20238;-78
2023/12/13 11:58:54;;;;;;;2.40;2.30;;;11.10;99.90;;;;;;10386657;28;20676;-77
2023/12/13 12:03:56;;;;;;;1.47;1.47;;;11.20;99.90;;;;;;10384931;28;20223;-77
2023/12/13 12:09:01;;;;;;;2.50;2.30;;;11.20;99.90;;;;;;10379489;28;20254;-77
2023/12/13 12:14:08;;;;;;;2.80;2.60;;;11.30;99.90;;;;;;10377098;28;20237;-78
2023/12/13 12:19:11;;;;;;;2.77;2.57;;;11.40;99.90;;;;;;10388349;28;20626;-77
2023/12/13 12:24:14;;;;;;;4.70;2.20;;;11.50;99.90;;;;;;10401955;28;20206;-78
2023/12/13 12:29:17;;;;;;;2.50;2.40;;;11.60;99.90;;;;;;10388967;28;20853;-78
2023/12/13 12:34:20;;;;;;;2.73;2.57;;;11.60;99.90;;;;;;10388606;28;20245;-78
2023/12/13 12:39:22;;;;;;;1.90;1.33;;;11.70;99.90;;;;;;10387509;28;20222;-78
2023/12/13 12:44:26;;;;;;;17.03;2.53;;;11.80;99.90;;;;;;10385303;28;20187;-77
2023/12/13 12:49:28;;;;;;;2.07;1.33;;;11.80;99.90;;;;;;10386671;28;20222;-78
2023/12/13 12:54:31;;;;;;;4.20;2.37;;;12.00;99.90;;;;;;10405335;28;20243;-78
2023/12/13 12:59:34;;;;;;;2.17;2.07;;;12.00;99.90;;;;;;10384408;28;20226;-78
2023/12/13 13:04:37;;;;;;;2.20;2.10;;;12.10;99.90;;;;;;10383501;28;20183;-78
2023/12/13 13:09:39;;;;;;;3.47;2.33;;;12.10;99.90;;;;;;10382189;28;20284;-78
2023/12/13 13:14:43;;;;;;;2.90;2.70;;;12.20;99.90;;;;;;10380621;28;20593;-75
2023/12/13 13:19:45;;;;;;;2.23;2.00;;;12.10;99.90;;;;;;10377639;28;20647;-78
2023/12/13 13:24:48;;;;;;;3.17;1.50;;;12.20;99.90;;;;;;10401595;28;20194;-77
2023/12/13 13:29:52;;;;;;;2.30;1.50;;;12.20;99.90;;;;;;10396138;28;20220;-78
2023/12/13 13:34:54;;;;;;;1.60;1.50;;;12.10;99.90;;;;;;10393906;28;20258;-78
2023/12/13 13:39:56;;;;;;;1.60;1.50;;;12.00;99.90;;;;;;10393687;28;20633;-78
2023/12/13 13:45:02;;;;;;;1.80;1.47;;;11.90;99.90;;;;;;10391537;28;20524;-77
2023/12/13 13:50:07;;;;;;;2.97;2.77;;;11.70;99.90;;;;;;10388411;28;20230;-77
2023/12/13 13:55:10;;;;;;;4.00;3.20;;;11.50;99.90;;;;;;10405618;28;20692;-79
2023/12/13 14:00:19;;;;;;;4.30;4.10;;;11.20;99.90;;;;;;10515167;22;20226;-76
2023/12/13 14:05:21;;;;;;;5.17;4.87;;;11.00;99.90;;;;;;10400186;28;20237;-75
2023/12/13 14:10:24;;;;;;;5.53;5.10;;;10.80;99.90;;;;;;10366917;28;20218;-76
2023/12/13 14:15:28;;;;;;;6.10;5.80;;;10.50;99.90;;;;;;10406225;28;20217;-76
2023/12/13 14:20:31;;;;;;;6.53;6.07;;;10.40;99.90;;;;;;10406768;28;20283;-76
2023/12/13 14:25:34;;;;;;;5.40;5.30;;;10.20;99.90;;;;;;10407523;28;20185;-76
2023/12/13 14:30:37;;;;;;;3.80;3.60;;;10.10;99.90;;;;;;10403495;28;20221;-75
2023/12/13 14:35:40;;;;;;;5.23;4.77;;;9.90;99.90;;;;;;10400926;28;20221;-76
2023/12/13 14:40:46;;;;;;;5.60;5.30;;;9.80;99.90;;;;;;10405804;28;20222;-76
2023/12/13 14:45:50;;;;;;;5.20;5.10;;;9.70;99.90;;;;;;10400408;28;20259;-76
2023/12/13 14:50:53;;;;;;;6.10;5.90;;;9.50;99.90;;;;;;10387403;28;20229;-76
2023/12/13 14:55:55;;;;;;;5.57;5.33;;;9.50;99.90;;;;;;10405440;28;20228;-76
2023/12/13 15:00:59;;;;;;;5.83;5.33;;;9.50;99.90;;;;;;10405598;28;20352;-75
2023/12/13 15:06:02;;;;;;;6.10;5.80;;;9.50;99.90;;;;;;10387263;28;20675;-76
2023/12/13 15:11:06;;;;;;;5.60;5.40;;;9.40;99.90;;;;;;10405340;28;20711;-76
2023/12/13 15:16:10;;;;;;;7.27;6.77;;;9.30;99.90;;;;;;10404897;28;20222;-76
2023/12/13 15:21:13;;;;;;;6.10;5.80;;;9.30;99.90;;;;;;10385732;28;20239;-75
2023/12/13 15:26:15;;;;;;;4.00;3.70;;;9.30;99.90;;;;;;10403382;28;20675;-76
2023/12/13 15:31:20;;;;;;;6.63;6.33;;;9.20;99.90;;;;;;10401607;28;20218;-75
2023/12/13 15:36:22;;;;;;;6.07;5.80;;;9.10;99.90;;;;;;10402503;28;20217;-75
2023/12/13 15:41:24;;;;;;;6.93;6.63;;;9.10;99.90;;;;;;10401286;28;20218;-76
2023/12/13 15:46:28;;;;;;;6.90;6.60;;;9.10;99.90;;;;;;10401972;28;20197;-75
2023/12/13 15:51:31;;;;;;;8.80;8.20;;;9.10;99.90;;;;;;10402791;28;21492;-75
2023/12/13 15:56:33;;;;;;;5.90;5.50;;;9.10;99.90;;;;;;10404044;28;20222;-76
2023/12/13 16:01:37;;;;;;;6.20;5.80;;;9.10;99.90;;;;;;10386746;28;20218;-75
2023/12/13 16:06:39;;;;;;;7.27;6.70;;;9.00;99.90;;;;;;10411087;28;20206;-75
2023/12/13 16:11:42;;;;;;;7.87;7.57;;;9.10;99.90;;;;;;10393213;28;20271;-75
2023/12/13 16:16:46;;;;;;;7.93;7.53;;;9.10;99.90;;;;;;10411434;28;20789;-75
2023/12/13 16:21:48;;;;;;;10.30;9.60;;;9.00;99.90;;;;;;10404336;28;20225;-75
2023/12/13 16:26:51;;;;;;;6.90;6.60;;;9.00;99.90;;;;;;10410664;28;20457;-76
2023/12/13 16:31:55;;;;;;;7.30;6.80;;;9.00;99.90;;;;;;10408994;28;20256;-76
2023/12/13 16:36:57;;;;;;;8.73;8.33;;;8.90;99.90;;;;;;10409884;28;20198;-76
2023/12/13 16:41:59;;;;;;;8.60;8.10;;;8.90;99.90;;;;;;10409791;28;20221;-75
2023/12/13 16:47:03;;;;;;;4.73;4.40;;;8.90;99.90;;;;;;10409658;28;20201;-74
2023/12/13 16:52:06;;;;;;;5.17;4.97;;;9.00;99.90;;;;;;10404924;28;20659;-75
2023/12/13 16:57:08;;;;;;;7.20;6.90;;;9.00;99.90;;;;;;10408433;28;20271;-75
2023/12/13 17:02:12;;;;;;;6.13;5.77;;;9.00;99.90;;;;;;10408642;28;20230;-76
2023/12/13 17:07:16;;;;;;;5.77;5.37;;;8.90;99.90;;;;;;10408122;28;20757;-75
2023/12/13 17:12:18;;;;;;;7.20;6.70;;;8.90;99.90;;;;;;10408671;28;20627;-74
2023/12/13 17:17:22;;;;;;;4.90;4.70;;;8.90;99.90;;;;;;10406920;28;20210;-75
2023/12/13 17:22:30;;;;;;;9.37;8.60;;;8.80;99.90;;;;;;10408101;28;20210;-75
2023/12/13 17:27:33;;;;;;;7.90;7.40;;;8.80;99.90;;;;;;10408092;28;20622;-74
2023/12/13 17:32:37;;;;;;;11.30;10.30;;;8.70;99.90;;;;;;10406269;28;20229;-75
2023/12/13 17:37:40;;;;;;;12.20;11.17;;;8.70;99.90;;;;;;10407906;28;20202;-74
2023/12/13 17:42:43;;;;;;;11.97;11.17;;;8.70;99.90;;;;;;10389864;28;20276;-74
2023/12/13 17:47:47;;;;;;;13.53;12.23;;;8.80;99.90;;;;;;10407120;28;20679;-74
2023/12/13 17:52:49;;;;;;;9.10;8.40;;;8.80;99.90;;;;;;10407411;28;20218;-74
2023/12/13 17:57:51;;;;;;;11.93;11.03;;;8.80;99.90;;;;;;10407243;28;20620;-75
2023/12/13 18:02:55;;;;;;;10.80;9.93;;;8.80;99.90;;;;;;10405989;28;20233;-75
2023/12/13 18:07:58;;;;;;;11.10;10.03;;;8.80;99.90;;;;;;10388608;28;20209;-75
2023/12/13 18:13:01;;;;;;;15.23;14.13;;;8.80;99.90;;;;;;10404514;28;20215;-74
2023/12/13 18:18:05;;;;;;;16.17;14.97;;;8.80;99.90;;;;;;10388174;28;20206;-75
2023/12/13 18:23:07;;;;;;;16.30;15.00;;;8.80;99.90;;;;;;10388897;28;20241;-74
2023/12/13 18:28:09;;;;;;;19.80;18.00;;;8.80;99.90;;;;;;10405104;28;20190;-74
2023/12/13 18:33:13;;;;;;;17.93;16.17;;;8.90;99.90;;;;;;10404468;28;20221;-75
2023/12/13 18:38:15;;;;;;;18.50;16.80;;;8.90;99.90;;;;;;10407043;28;20198;-75
2023/12/13 18:43:18;;;;;;;22.07;20.07;;;8.90;99.90;;;;;;10408509;28;20260;-75
2023/12/13 18:48:22;;;;;;;24.67;22.47;;;9.00;99.90;;;;;;10408712;28;20198;-75
2023/12/13 18:53:24;;;;;;;20.30;18.20;;;9.10;99.90;;;;;;10406515;28;20226;-74
2023/12/13 18:58:29;;;;;;;24.27;22.13;;;9.10;99.90;;;;;;10404801;28;20190;-76
2023/12/13 19:03:33;;;;;;;21.03;19.17;;;9.10;99.90;;;;;;10404405;28;20229;-74
2023/12/13 19:08:35;;;;;;;23.23;20.92;;;9.10;99.90;;;;;;10404814;28;20927;-76
2023/12/13 19:13:38;;;;;;;22.40;20.20;;;9.10;99.90;;;;;;10401749;28;20480;-77
2023/12/13 19:18:41;;;;;;;23.87;21.77;;;9.30;99.90;;;;;;10404674;28;20206;-76
2023/12/13 19:23:44;;;;;;;24.70;22.40;;;9.20;99.90;;;;;;10404712;28;20225;-75
2023/12/13 19:28:46;;;;;;;19.60;17.80;;;9.10;99.90;;;;;;10405060;28;20203;-76
2023/12/13 19:33:50;;;;;;;20.43;18.73;;;9.00;99.90;;;;;;10386425;28;20633;-75
2023/12/13 19:38:52;;;;;;;22.70;20.60;;;9.00;99.90;;;;;;10408921;28;20245;-77
2023/12/13 19:43:55;;;;;;;18.80;17.17;;;9.00;99.90;;;;;;10411775;28;20695;-76
2023/12/13 19:48:58;;;;;;;18.40;17.10;;;8.90;99.90;;;;;;10412156;28;20202;-76
2023/12/13 19:54:01;;;;;;;14.27;13.17;;;8.80;99.90;;;;;;10412200;28;20694;-76
2023/12/13 19:59:03;;;;;;;15.50;14.40;;;8.80;99.90;;;;;;10411975;28;20206;-77
2023/12/13 20:04:08;;;;;;;13.33;12.43;;;8.70;99.90;;;;;;10411719;28;20287;-76
2023/12/13 20:09:12;;;;;;;12.33;11.60;;;8.70;99.90;;;;;;10394196;28;20202;-75
2023/12/13 20:14:15;;;;;;;12.80;12.00;;;8.70;99.90;;;;;;10410776;28;20221;-76
2023/12/13 20:19:18;;;;;;;13.67;12.87;;;8.70;99.90;;;;;;10411380;28;20225;-76
2023/12/13 20:24:21;;;;;;;10.20;9.40;;;8.80;99.90;;;;;;10411307;28;20206;-76
2023/12/13 20:29:23;;;;;;;13.40;12.57;;;8.80;99.90;;;;;;10411158;28;20205;-76
2023/12/13 20:34:27;;;;;;;12.33;11.53;;;8.80;99.90;;;;;;10409446;28;20222;-76
2023/12/13 20:39:29;;;;;;;8.93;8.27;;;8.80;99.90;;;;;;10410598;28;20252;-75
2023/12/13 20:44:32;;;;;;;11.00;10.40;;;8.80;99.90;;;;;;10410507;28;20566;-77
2023/12/13 20:49:35;;;;;;;11.00;10.40;;;8.70;99.90;;;;;;10406049;28;20497;-76
2023/12/13 20:54:38;;;;;;;9.70;9.20;;;8.90;99.90;;;;;;10409729;28;20774;-76
2023/12/13 20:59:41;;;;;;;8.60;8.20;;;8.80;99.90;;;;;;10405499;28;20744;-76
2023/12/13 21:04:45;;;;;;;9.17;8.77;;;8.70;99.90;;;;;;10410666;28;20210;-76
2023/12/13 21:09:47;;;;;;;7.10;6.80;;;8.50;99.90;;;;;;10412368;28;20208;-76
2023/12/13 21:14:49;;;;;;;8.20;7.90;;;8.50;99.90;;;;;;10411536;28;20233;-76
2023/12/13 21:19:53;;;;;;;8.20;7.90;;;8.30;99.90;;;;;;10406520;28;20233;-76
2023/12/13 21:24:55;;;;;;;8.00;7.70;;;8.20;99.90;;;;;;10405750;28;20617;-76
2023/12/13 21:29:58;;;;;;;8.37;8.07;;;8.10;99.90;;;;;;10407583;28;20222;-77
2023/12/13 21:35:03;;;;;;;8.03;7.73;;;8.00;99.90;;;;;;10404603;28;20491;-77
2023/12/13 21:40:07;;;;;;;9.20;8.80;;;8.00;99.90;;;;;;10410950;28;20711;-76
2023/12/13 21:45:10;;;;;;;8.37;7.97;;;8.00;99.90;;;;;;10409852;28;20243;-76
2023/12/13 21:50:13;;;;;;;8.10;7.70;;;8.00;99.90;;;;;;10393952;28;20210;-76
2023/12/13 21:55:16;;;;;;;7.57;7.27;;;8.00;99.90;;;;;;10411539;28;20298;-76
2023/12/13 22:00:19;;;;;;;7.90;7.60;;;8.00;99.90;;;;;;10411535;28;20233;-76
2023/12/13 22:05:23;;;;;;;8.30;7.90;;;8.00;99.90;;;;;;10411053;28;20733;-77
2023/12/13 22:10:26;;;;;;;7.63;7.33;;;8.00;99.90;;;;;;10411961;28;20228;-77
2023/12/13 22:15:29;;;;;;;6.80;6.50;;;8.10;99.90;;;;;;10409579;28;20244;-77
2023/12/13 22:20:32;;;;;;;7.93;7.63;;;8.10;99.90;;;;;;10409712;28;20275;-77
2023/12/13 22:25:37;;;;;;;7.83;7.53;;;8.10;99.90;;;;;;10408909;28;20197;-76
2023/12/13 22:30:39;;;;;;;7.87;7.57;;;8.20;99.90;;;;;;10410965;28;20230;-77
2023/12/13 22:35:45;;;;;;;7.67;6.97;;;8.10;99.90;;;;;;10409261;28;20225;-77
2023/12/13 22:40:47;;;;;;;8.20;7.80;;;8.20;99.90;;;;;;10409393;28;20768;-77
2023/12/13 22:45:49;;;;;;;7.40;7.00;;;8.30;99.90;;;;;;10400913;28;20209;-77
2023/12/13 22:50:53;;;;;;;7.13;6.67;;;8.20;99.90;;;;;;10409980;28;20225;-77
2023/12/13 22:55:55;;;;;;;7.03;6.83;;;8.20;99.90;;;;;;10406143;28;20217;-77
2023/12/13 23:00:58;;;;;;;6.57;6.10;;;8.20;99.90;;;;;;10407654;28;20232;-77
2023/12/13 23:06:01;;;;;;;6.07;5.87;;;8.30;99.90;;;;;;10407019;28;20687;-77
2023/12/13 23:11:04;;;;;;;6.13;5.90;;;8.30;99.90;;;;;;10409172;28;20291;-77
2023/12/13 23:16:07;;;;;;;6.07;5.77;;;8.30;99.90;;;;;;10414535;28;20221;-77
2023/12/13 23:21:11;;;;;;;7.00;6.70;;;8.30;99.90;;;;;;10417869;28;20213;-76
2023/12/13 23:26:14;;;;;;;7.50;7.00;;;8.40;99.90;;;;;;10411887;28;20717;-77
2023/12/13 23:31:16;;;;;;;6.17;5.87;;;8.50;99.90;;;;;;10409789;28;20380;-76
2023/12/13 23:36:20;;;;;;;6.77;6.47;;;8.40;99.90;;;;;;10411874;28;20214;-75
2023/12/13 23:41:22;;;;;;;6.83;6.53;;;8.40;99.90;;;;;;10410176;28;20651;-76
2023/12/13 23:46:24;;;;;;;6.83;6.53;;;8.40;99.90;;;;;;10411967;28;20236;-76
2023/12/13 23:51:29;;;;;;;7.60;7.20;;;8.30;99.90;;;;;;10412868;28;20214;-76
2023/12/13 23:56:33;;;;;;;7.43;7.13;;;8.20;99.90;;;;;;10413209;28;20228;-76
